Latest Coastal Weather Observations for Minlaton Airport

IDS60701

Issued at 5:45 pm CDT Friday 31 October 2014 (issued every 10 minutes, with the page automatically refreshed every 10 minutes)

About coastal observations | Map of coastal stations | Coastal observations for SA | Marine services | Other Formats
Station Details ID: 022031 Name: MINLATON AERO Lat: -34.75 Lon: 137.53 Height: 32.0 m
Data from the previous 72 hours. | See also: Recent months at Minlaton Airport
Date/Time
CDT
Temp

°C
Wind Pressure Rain
since 9am
mm
Weather Cloud Vis
km
Sea
Height
m
Swell
Dir
 
Speed
knots
Gust
knots
hPa Trend Height
m
Period
s
Dir
31/05:30pm 20.1 WSW 21 27 1001.9 - 0.0 - - - - - - -
31/05:00pm 22.1 WSW 17 22 1001.5 - 0.0 - - - - - - -
31/04:30pm 23.0 WSW 16 21 1001.3 - 0.0 - - - - - - -
31/04:00pm 24.5 W 12 16 1001.1 - 0.0 - - - - - - -
31/03:30pm 25.8 W 17 21 1001.4 - 0.0 - - - - - - -
31/03:00pm 24.7 W 16 21 1001.7 - 0.0 - - - - - - -
31/02:30pm 25.0 W 15 20 1001.9 - 0.0 - - - - - - -
31/02:00pm 24.4 W 13 17 1002.2 - 0.0 - - - - - - -
31/01:30pm 25.1 WNW 13 16 1002.1 - 0.0 - - - - - - -
31/01:00pm 26.4 NW 13 16 1002.2 - 0.0 - - - - - - -
31/12:30pm 30.2 NW 17 23 1002.3 - 0.0 - - - - - - -
31/12:00pm 30.2 NNW 19 24 1002.6 - 0.0 - - - - - - -
31/11:30am 30.7 N 22 27 1002.5 - 0.0 - - - - - - -
31/11:00am 31.6 NNW 22 29 1002.7 - 0.0 - - - - - - -
31/10:30am 31.9 NNW 18 23 1002.9 - 0.0 - - - - - - -
31/10:00am 32.1 N 16 21 1002.9 - 0.0 - - - - - - -
31/09:30am 30.0 N 16 21 1003.1 - 0.0 - - - - - - -
31/09:00am 27.8 NNE 12 16 1003.7 - 0.0 - - - - - - -
31/08:30am 24.2 NNE 12 16 1004.1 - 0.0 - - - - - - -
31/08:00am 22.3 NE 12 15 1004.3 - 0.0 - - - - - - -
31/07:30am 21.5 NE 12 16 1004.3 - 0.0 - - - - - - -
31/07:00am 20.2 NE 14 18 1004.5 - 0.0 - - - - - - -
31/06:30am 17.8 NE 15 18 1004.5 - 0.0 - - - - - - -
31/06:00am 17.0 ENE 12 15 1004.8 - 0.0 - - - - - - -
31/05:30am 16.5 ENE 13 15 1005.1 - 0.0 - - - - - - -
31/05:00am 17.4 ENE 14 17 1005.5 - 0.0 - - - - - - -
31/04:30am 17.2 ENE 15 20 1005.3 - 0.0 - - - - - - -
31/04:00am 17.7 ENE 16 19 1006.2 - 0.0 - - - - - - -
31/03:30am 17.7 ENE 14 16 1006.5 - 0.0 - - - - - - -
31/03:00am 17.0 ENE 14 16 1006.8 - 0.0 - - - - - - -
31/02:30am 14.3 E 12 14 1007.5 - 0.0 - - - - - - -
31/02:00am 15.0 E 14 15 1007.8 - 0.0 - - - - - - -
31/01:30am 15.9 E 15 17 1008.1 - 0.0 - - - - - - -
31/01:00am 15.2 E 13 15 1008.9 - 0.0 - - - - - - -
31/12:30am 15.0 E 13 14 1009.7 - 0.0 - - - - - - -
31/12:00am 15.1 E 12 14 1010.1 - 0.0 - - - - - - -
 
Date/Time
CDT
Temp

°C
Wind Pressure Rain
since 9am
mm
Weather Cloud Vis
km
Sea
Height
m
Swell
Dir
 
Speed
knots
Gust
knots
hPa Trend Height
m
Period
s
Dir
30/11:30pm 15.6 E 11 13 1010.5 - 0.0 - - - - - - -
30/11:00pm 15.6 E 10 12 1010.8 - 0.0 - - - - - - -
30/10:30pm 16.6 E 12 14 1011.1 - 0.0 - - - - - - -
30/10:00pm 16.8 E 11 12 1011.5 - 0.0 - - - - - - -
30/09:30pm 16.5 E 9 11 1011.7 - 0.0 - - - - - - -
30/09:00pm 17.0 E 10 11 1011.6 - 0.0 - - - - - - -
30/08:30pm 17.4 E 10 11 1011.6 - 0.0 - - - - - - -
30/08:00pm 18.2 E 8 9 1011.7 - 0.0 - - - - - - -
30/07:30pm 20.0 ESE 7 8 1011.4 - 0.0 - - - - - - -
30/07:00pm 21.7 ESE 9 11 1011.2 - 0.0 - - - - - - -
30/06:30pm 23.3 ESE 9 11 1011.3 - 0.0 - - - - - - -
30/06:00pm 24.2 WSW 8 11 1011.7 - 0.0 - - - - - - -
30/05:30pm 22.3 WSW 11 14 1012.0 - 0.0 - - - - - - -
30/05:00pm 23.8 W 12 15 1012.1 - 0.0 - - - - - - -
30/04:30pm 24.9 W 10 15 1012.2 - 0.0 - - - - - - -
30/04:00pm 24.5 WSW 11 15 1012.4 - 0.0 - - - - - - -
30/03:30pm 23.6 W 13 17 1012.8 - 0.0 - - - - - - -
30/03:00pm 25.5 WSW 9 14 1012.6 - 0.0 - - - - - - -
30/02:30pm 24.4 WSW 11 15 1013.2 - 0.0 - - - - - - -
30/02:00pm 23.5 W 14 16 1013.9 - 0.0 - - - - - - -
30/01:30pm 23.9 W 7 11 1013.7 - 0.0 - - - - - - -
30/01:00pm 22.3 W 10 13 1014.5 - 0.0 - - - - - - -
30/12:30pm 22.3 W 9 12 1014.8 - 0.0 - - - - - - -
30/12:00pm 22.0 W 8 10 1015.1 - 0.0 - - - - - - -
30/11:30am 20.7 W 10 13 1015.6 - 0.0 - - - - - - -
30/11:00am 21.9 NE 4 8 1015.9 - 0.0 - - - - - - -
30/10:30am 20.1 ENE 5 7 1016.3 - 0.0 - - - - - - -
30/10:00am 19.1 NE 5 8 1016.2 - 0.0 - - - - - - -
30/09:30am 17.9 E 7 11 1016.1 - 0.0 - - - - - - -
30/09:00am 17.2 ESE 7 9 1016.4 - 0.0 - - - - - - -
30/08:30am 16.3 SE 5 7 1016.7 - 0.0 - - - - - - -
30/08:00am 14.3 ESE 6 8 1016.6 - 0.0 - - - - - - -
30/07:30am 12.1 E 6 7 1016.6 - 0.0 - - - - - - -
30/07:00am 9.3 E 8 8 1016.5 - 0.0 - - - - - - -
30/06:30am 7.7 E 6 7 1015.8 - 0.0 - - - - - - -
30/06:00am 8.4 ENE 8 10 1014.9 - 0.0 - - - - - - -
30/05:30am 9.4 E 7 7 1015.5 - 0.0 - - - - - - -
30/05:00am 10.8 SSE 6 7 1016.2 - 0.0 - - - - - - -
30/04:30am 9.5 SE 6 7 1016.3 - 0.0 - - - - - - -
30/04:00am 7.2 ESE 6 7 1015.9 - 0.0 - - - - - - -
30/03:30am 8.4 ENE 8 9 1015.4 - 0.0 - - - - - - -
30/03:00am 8.7 E 7 8 1015.8 - 0.0 - - - - - - -
30/02:30am 9.2 E 8 9 1015.8 - 0.0 - - - - - - -
30/02:00am 9.3 E 8 9 1016.2 - 0.0 - - - - - - -
30/01:30am 9.5 ESE 8 8 1016.6 - 0.0 - - - - - - -
30/01:00am 9.6 E 8 8 1017.0 - 0.0 - - - - - - -
30/12:30am 10.6 SSE 6 7 1017.4 - 0.0 - - - - - - -
30/12:00am 10.3 S 7 7 1017.5 - 0.0 - - - - - - -
 
Date/Time
CDT
Temp

°C
Wind Pressure Rain
since 9am
mm
Weather Cloud Vis
km
Sea
Height
m
Swell
Dir
 
Speed
knots
Gust
knots
hPa Trend Height
m
Period
s
Dir
29/11:30pm 10.5 S 6 7 1017.7 - 0.0 - - - - - - -
29/11:00pm 10.6 S 6 6 1017.8 - 0.0 - - - - - - -
29/10:30pm 11.4 S 6 6 1018.0 - 0.0 - - - - - - -
29/10:00pm 11.6 SSE 7 8 1018.0 - 0.0 - - - - - - -
29/09:30pm 11.4 S 7 7 1017.8 - 0.0 - - - - - - -
29/09:00pm 12.5 S 8 9 1017.5 - 0.0 - - - - - - -
29/08:30pm 13.6 S 6 7 1017.2 - 0.0 - - - - - - -
29/08:00pm 15.0 S 9 11 1017.3 - 0.0 - - - - - - -
29/07:30pm 15.9 S 10 14 1017.2 - 0.0 - - - - - - -
29/07:00pm 17.1 S 13 17 1017.1 - 0.0 - - - - - - -
29/06:30pm 19.1 S 13 17 1016.7 - 0.0 - - - - - - -
29/06:00pm 20.1 S 14 17 1016.4 - 0.0 - - - - - - -
29/05:30pm 21.1 S 13 17 1016.0 - 0.0 - - - - - - -
29/05:00pm 23.5 SW 8 14 1016.1 - 0.0 - - - - - - -
29/04:30pm 23.4 SW 9 13 1016.3 - 0.0 - - - - - - -
29/04:00pm 22.8 WSW 10 14 1016.5 - 0.0 - - - - - - -
29/03:30pm 21.6 SW 9 13 1016.9 - 0.0 - - - - - - -
29/03:00pm 21.3 WNW 7 13 1017.1 - 0.0 - - - - - - -
29/02:30pm 20.2 WSW 11 17 1017.7 - 0.0 - - - - - - -
29/02:00pm 20.5 WSW 13 16 1017.9 - 0.0 - - - - - - -
29/01:30pm 20.2 W 13 15 1018.2 - 0.0 - - - - - - -
29/01:00pm 20.0 W 11 16 1018.6 - 0.0 - - - - - - -
29/12:30pm 20.3 W 10 14 1018.7 - 0.0 - - - - - - -
29/12:00pm 19.8 W 9 14 1018.9 - 0.0 - - - - - - -
29/11:30am 20.0 W 9 14 1019.2 - 0.0 - - - - - - -
29/11:00am 19.6 WNW 8 12 1019.4 - 0.0 - - - - - - -
29/10:30am 19.2 WSW 7 10 1019.5 - 0.0 - - - - - - -
29/10:00am 18.1 NNW 6 9 1019.6 - 0.0 - - - - - - -
29/09:30am 17.3 ENE 5 7 1019.8 - 0.0 - - - - - - -
29/09:00am 17.5 E 4 6 1020.0 - 0.0 - - - - - - -
29/08:30am 17.0 ENE 5 7 1020.0 - 0.0 - - - - - - -
29/08:00am 15.5 E 5 7 1020.0 - 0.0 - - - - - - -
29/07:30am 13.5 E 5 6 1019.9 - 0.0 - - - - - - -
29/07:00am 11.0 ESE 7 8 1019.9 - 0.0 - - - - - - -
29/06:30am 10.2 E 6 7 1019.8 - 0.0 - - - - - - -
29/06:00am 10.0 E 6 7 1019.5 - 0.0 - - - - - - -
29/05:30am 9.7 ESE 5 7 1019.5 - 0.0 - - - - - - -
29/05:00am 10.4 SSE 3 4 1019.4 - 0.0 - - - - - - -
29/04:30am 8.5 SE 5 5 1019.4 - 0.0 - - - - - - -
29/04:00am 7.4 S 5 5 1019.4 - 0.0 - - - - - - -
29/03:30am 7.1 SE 5 5 1019.5 - 0.0 - - - - - - -
29/03:00am 7.2 SSE 5 5 1019.5 - 0.0 - - - - - - -
29/02:30am 7.5 S 4 5 1019.7 - 0.0 - - - - - - -
29/02:00am 6.9 S 3 4 1019.8 - 0.0 - - - - - - -
29/01:30am 7.5 SSW 4 4 1020.2 - 0.0 - - - - - - -
29/01:00am 8.8 S 4 4 1020.2 - 0.0 - - - - - - -
29/12:30am 8.8 SSW 5 5 1020.3 - 0.0 - - - - - - -
29/12:00am 9.6 S 5 6 1020.3 - 0.0 - - - - - - -
 
Date/Time
CDT
Temp

°C
Wind Pressure Rain
since 9am
mm
Weather Cloud Vis
km
Sea
Height
m
Swell
Dir
 
Speed
knots
Gust
knots
hPa Trend Height
m
Period
s
Dir
28/11:30pm 10.4 S 6 6 1020.3 - 0.0 - - - - - - -
28/11:00pm 10.1 S 7 8 1020.2 - 0.0 - - - - - - -
28/10:30pm 10.8 S 9 9 1020.2 - 0.0 - - - - - - -
28/10:00pm 11.3 S 7 8 1020.3 - 0.0 - - - - - - -
28/09:30pm 11.6 S 7 8 1020.1 - 0.0 - - - - - - -
28/09:00pm 12.2 S 8 10 1019.7 - 0.0 - - - - - - -
28/08:30pm 13.5 SSW 7 9 1019.6 - 0.0 - - - - - - -
28/08:00pm 14.4 SW 8 10 1019.5 - 0.0 - - - - - - -
28/07:30pm 16.6 SW 7 9 1019.4 - 0.0 - - - - - - -
28/07:00pm 17.8 WSW 11 14 1019.3 - 0.0 - - - - - - -
28/06:30pm 18.2 WSW 12 16 1019.2 - 0.0 - - - - - - -
28/06:00pm 18.7 WSW 13 17 1019.1 - 0.0 - - - - - - -

Other Formats:

Comma delimited format used in spreadsheet applications
http://www.bom.gov.au/fwo/IDS60701/IDS60701.95659.axf

JavaScript Object Notation format (JSON) in row-major order
http://www.bom.gov.au/fwo/IDS60701/IDS60701.95659.json